Time;durP1;ratioP1;P1;durP2;ratioP2;P2;SDS_P1;SDS_P2;PMS_P1;PMS_P2;Temp;Humidity;BMP_temperature;BMP_pressure;BME280_temperature;BME280_humidity;BME280_pressure;Samples;Min_cycle;Max_cycle;Signal;HPM_P1;HPM_P2
2021/03/18 00:00:30;;;;;;;18.00;12.90;;;;;;;;;;5107817;28;20178;-42
2021/03/18 00:02:55;;;;;;;12.33;10.97;;;;;;;;;;5108216;28;21006;-42
2021/03/18 00:05:20;;;;;;;14.40;11.87;;;;;;;;;;5108182;28;20639;-42
2021/03/18 00:07:45;;;;;;;13.90;12.30;;;;;;;;;;5108326;28;20534;-41
2021/03/18 00:10:11;;;;;;;12.13;10.70;;;;;;;;;;5108657;28;20177;-41
2021/03/18 00:12:36;;;;;;;17.03;13.40;;;;;;;;;;5108042;28;20206;-42
2021/03/18 00:15:04;;;;;;;21.20;13.53;;;;;;;;;;5108065;28;20212;-42
2021/03/18 00:17:29;;;;;;;14.00;11.70;;;;;;;;;;5108271;28;20173;-43
2021/03/18 00:19:54;;;;;;;13.47;11.43;;;;;;;;;;5108333;28;20605;-42
2021/03/18 00:22:19;;;;;;;15.83;12.20;;;;;;;;;;5108637;28;20831;-42
2021/03/18 00:24:45;;;;;;;14.90;12.90;;;;;;;;;;5108517;28;20180;-42
2021/03/18 00:27:12;;;;;;;15.27;13.20;;;;;;;;;;5108095;28;20174;-42
2021/03/18 00:29:37;;;;;;;19.50;14.90;;;;;;;;;;5107159;28;20162;-41
2021/03/18 00:32:02;;;;;;;16.10;13.13;;;;;;;;;;5108358;28;20606;-42
2021/03/18 00:34:27;;;;;;;16.83;13.63;;;;;;;;;;5109276;28;20679;-43
2021/03/18 00:36:52;;;;;;;16.20;13.13;;;;;;;;;;5112077;28;20182;-42
2021/03/18 00:39:18;;;;;;;15.47;12.50;;;;;;;;;;5112022;28;20181;-42
2021/03/18 00:41:43;;;;;;;15.37;13.03;;;;;;;;;;5111856;28;20204;-42
2021/03/18 00:44:08;;;;;;;13.40;12.00;;;;;;;;;;5111669;28;20189;-42
2021/03/18 00:46:33;;;;;;;14.33;12.80;;;;;;;;;;5115130;27;20221;-42
2021/03/18 00:48:58;;;;;;;16.27;13.47;;;;;;;;;;5112011;28;20215;-43
2021/03/18 00:51:25;;;;;;;15.70;14.07;;;;;;;;;;5112183;28;20178;-42
2021/03/18 00:53:50;;;;;;;16.10;12.93;;;;;;;;;;5111788;28;20582;-42
2021/03/18 00:56:20;;;;;;;20.37;15.70;;;;;;;;;;5111765;28;20642;-41
2021/03/18 00:58:45;;;;;;;19.37;13.40;;;;;;;;;;5111781;28;20177;-42
2021/03/18 01:01:11;;;;;;;16.30;13.33;;;;;;;;;;5111779;28;20814;-42
2021/03/18 01:03:38;;;;;;;15.00;13.30;;;;;;;;;;5111190;28;20185;-41
2021/03/18 01:06:05;;;;;;;18.60;12.73;;;;;;;;;;5111059;28;20646;-41
2021/03/18 01:08:31;;;;;;;20.03;14.90;;;;;;;;;;5111439;28;20613;-42
2021/03/18 01:10:58;;;;;;;22.40;14.77;;;;;;;;;;5111307;28;21101;-42
2021/03/18 01:13:23;;;;;;;18.23;13.97;;;;;;;;;;5111942;28;20173;-42
2021/03/18 01:15:50;;;;;;;15.00;12.47;;;;;;;;;;5111506;28;21023;-42
2021/03/18 01:18:16;;;;;;;14.03;12.40;;;;;;;;;;5111577;28;20206;-47
2021/03/18 01:20:41;;;;;;;16.27;13.70;;;;;;;;;;5111185;28;20614;-42
2021/03/18 01:23:06;;;;;;;14.30;12.83;;;;;;;;;;5111639;28;20609;-42
2021/03/18 01:25:31;;;;;;;20.85;16.00;;;;;;;;;;5111588;28;20206;-41
2021/03/18 01:27:57;;;;;;;16.15;14.15;;;;;;;;;;5109870;28;20177;-41
2021/03/18 01:30:22;;;;;;;17.17;13.93;;;;;;;;;;5111816;28;20174;-42
2021/03/18 01:32:48;;;;;;;25.87;17.07;;;;;;;;;;5111470;28;20265;-41
2021/03/18 01:35:17;;;;;;;19.60;14.00;;;;;;;;;;5111173;28;20203;-41
2021/03/18 01:37:43;;;;;;;18.60;14.37;;;;;;;;;;5110716;28;20260;-42
2021/03/18 01:40:09;;;;;;;20.07;15.87;;;;;;;;;;5111127;28;20726;-41
2021/03/18 01:42:34;;;;;;;19.30;15.73;;;;;;;;;;5110930;28;20593;-41
2021/03/18 01:45:00;;;;;;;17.63;15.40;;;;;;;;;;5110380;28;20738;-42
2021/03/18 01:47:25;;;;;;;25.17;17.13;;;;;;;;;;5110211;28;20174;-42
2021/03/18 01:49:50;;;;;;;19.42;15.98;;;;;;;;;;5110867;28;20948;-42
2021/03/18 01:52:16;;;;;;;22.75;18.88;;;;;;;;;;5110876;28;20205;-42
2021/03/18 01:54:41;;;;;;;20.88;16.30;;;;;;;;;;5110321;28;20252;-42
2021/03/18 01:57:06;;;;;;;19.13;15.87;;;;;;;;;;5110509;28;20196;-42
2021/03/18 01:59:31;;;;;;;22.63;17.10;;;;;;;;;;5111083;28;20176;-42
2021/03/18 02:01:56;;;;;;;20.40;16.60;;;;;;;;;;5104755;28;20197;-42
2021/03/18 02:04:21;;;;;;;20.80;16.40;;;;;;;;;;5110071;28;20185;-42
2021/03/18 02:06:47;;;;;;;17.97;15.80;;;;;;;;;;5110391;28;20670;-42
2021/03/18 02:09:12;;;;;;;18.77;16.70;;;;;;;;;;5109717;28;20189;-42
2021/03/18 02:11:37;;;;;;;27.10;18.70;;;;;;;;;;5110375;28;20173;-42
2021/03/18 02:14:02;;;;;;;22.83;17.23;;;;;;;;;;5110606;28;20783;-42
2021/03/18 02:16:30;;;;;;;18.87;16.07;;;;;;;;;;5110620;28;20173;-41
2021/03/18 02:19:01;;;;;;;24.80;17.60;;;;;;;;;;5109323;28;20214;-41
2021/03/18 02:21:45;;;;;;;21.00;16.77;;;;;;;;;;5110210;28;20660;-41
2021/03/18 02:24:17;;;;;;;23.13;17.23;;;;;;;;;;5109680;28;20676;-41
2021/03/18 02:26:54;;;;;;;20.53;16.47;;;;;;;;;;5109808;28;21972;-41
2021/03/18 02:29:38;;;;;;;23.63;18.37;;;;;;;;;;5109311;28;20663;-42
2021/03/18 02:32:17;;;;;;;19.33;17.20;;;;;;;;;;5108413;28;21149;-42
2021/03/18 02:34:55;;;;;;;22.00;17.20;;;;;;;;;;5108820;28;20602;-42
2021/03/18 02:37:22;;;;;;;21.87;17.93;;;;;;;;;;5107765;28;21242;-41
2021/03/18 02:39:55;;;;;;;16.57;14.80;;;;;;;;;;5108535;28;20689;-41
2021/03/18 02:42:21;;;;;;;19.50;14.97;;;;;;;;;;5100932;28;20623;-41
2021/03/18 02:44:51;;;;;;;17.10;14.20;;;;;;;;;;5109039;28;21157;-42
2021/03/18 02:47:19;;;;;;;15.77;13.60;;;;;;;;;;5109091;28;20603;-41
2021/03/18 02:49:45;;;;;;;18.60;14.60;;;;;;;;;;5109484;28;21175;-42
2021/03/18 02:52:11;;;;;;;18.60;14.90;;;;;;;;;;5109201;28;20588;-42
2021/03/18 02:54:37;;;;;;;14.57;13.07;;;;;;;;;;5109254;28;20648;-42
2021/03/18 02:57:03;;;;;;;17.93;14.90;;;;;;;;;;5108504;28;20615;-42
2021/03/18 02:59:36;;;;;;;15.53;13.10;;;;;;;;;;5108276;28;20176;-42
2021/03/18 03:02:02;;;;;;;17.00;14.60;;;;;;;;;;5108980;28;20611;-42
2021/03/18 03:04:28;;;;;;;18.97;14.97;;;;;;;;;;5109661;28;21403;-41
2021/03/18 03:06:54;;;;;;;15.67;13.57;;;;;;;;;;5108723;28;20649;-42
2021/03/18 03:09:19;;;;;;;17.27;15.07;;;;;;;;;;5109100;28;20630;-42
2021/03/18 03:11:45;;;;;;;18.53;15.77;;;;;;;;;;5109096;28;20229;-42
2021/03/18 03:14:11;;;;;;;20.63;16.77;;;;;;;;;;5108576;28;20174;-42
2021/03/18 03:16:36;;;;;;;17.33;14.90;;;;;;;;;;5109058;28;20177;-42
2021/03/18 03:19:02;;;;;;;22.30;16.93;;;;;;;;;;5109107;28;20961;-42
2021/03/18 03:21:28;;;;;;;21.23;17.73;;;;;;;;;;5109056;28;20253;-42
2021/03/18 03:23:53;;;;;;;19.00;16.10;;;;;;;;;;5109065;28;21192;-42
2021/03/18 03:26:20;;;;;;;18.57;16.03;;;;;;;;;;5109158;28;20189;-43
2021/03/18 03:28:46;;;;;;;19.00;16.23;;;;;;;;;;5108646;28;20253;-42
2021/03/18 03:31:11;;;;;;;20.07;16.13;;;;;;;;;;5108301;28;20588;-41
2021/03/18 03:33:38;;;;;;;22.27;17.23;;;;;;;;;;5108688;28;20600;-42
2021/03/18 03:36:03;;;;;;;19.87;15.90;;;;;;;;;;5108157;28;20177;-42
2021/03/18 03:38:28;;;;;;;18.90;15.60;;;;;;;;;;5108309;28;20634;-41
2021/03/18 03:40:54;;;;;;;18.57;16.37;;;;;;;;;;5107871;28;20830;-44
2021/03/18 03:43:19;;;;;;;21.17;17.23;;;;;;;;;;5107700;28;20552;-42
2021/03/18 03:45:46;;;;;;;17.67;15.43;;;;;;;;;;5109062;28;20304;-43
2021/03/18 03:48:11;;;;;;;19.27;15.57;;;;;;;;;;5107945;28;20237;-42
2021/03/18 03:50:36;;;;;;;18.10;15.73;;;;;;;;;;5107718;28;20581;-42
2021/03/18 03:53:17;;;;;;;22.50;17.13;;;;;;;;;;5108593;28;20171;-42
2021/03/18 03:55:53;;;;;;;20.53;16.80;;;;;;;;;;5107791;28;20221;-41
2021/03/18 03:58:36;;;;;;;19.27;16.70;;;;;;;;;;5108715;28;20629;-41
2021/03/18 04:01:04;;;;;;;20.97;16.40;;;;;;;;;;5107905;28;20603;-41
2021/03/18 04:03:31;;;;;;;18.37;15.87;;;;;;;;;;5108427;28;20588;-41
2021/03/18 04:05:57;;;;;;;18.57;15.53;;;;;;;;;;5108379;28;20999;-42
2021/03/18 04:08:24;;;;;;;18.10;15.33;;;;;;;;;;5108087;28;20600;-40
2021/03/18 04:10:50;;;;;;;19.07;16.57;;;;;;;;;;5114806;28;21155;-42
2021/03/18 04:13:16;;;;;;;17.97;16.13;;;;;;;;;;5114674;28;20932;-41
2021/03/18 04:15:41;;;;;;;19.33;15.83;;;;;;;;;;5114933;28;20685;-42
2021/03/18 04:18:09;;;;;;;21.17;16.80;;;;;;;;;;5115080;28;20196;-41
2021/03/18 04:20:36;;;;;;;21.07;17.10;;;;;;;;;;5115192;28;20196;-42
2021/03/18 04:23:03;;;;;;;21.73;18.10;;;;;;;;;;5114158;27;21165;-41
2021/03/18 04:25:29;;;;;;;19.93;17.37;;;;;;;;;;5115240;28;21244;-41
2021/03/18 04:27:55;;;;;;;20.33;17.03;;;;;;;;;;5114469;28;20588;-41
2021/03/18 04:30:21;;;;;;;19.23;17.00;;;;;;;;;;5114948;28;21011;-41
2021/03/18 04:32:47;;;;;;;19.07;16.20;;;;;;;;;;5115115;28;20622;-42
2021/03/18 04:35:13;;;;;;;17.47;15.67;;;;;;;;;;5114317;28;20772;-42
2021/03/18 04:37:38;;;;;;;18.43;15.57;;;;;;;;;;5114974;28;21155;-42
2021/03/18 04:40:06;;;;;;;19.50;16.70;;;;;;;;;;5114917;28;20198;-42
2021/03/18 04:42:32;;;;;;;23.30;19.03;;;;;;;;;;5111971;28;20210;-40
2021/03/18 04:44:57;;;;;;;18.27;16.20;;;;;;;;;;5114924;28;20603;-41
2021/03/18 04:47:23;;;;;;;21.50;18.33;;;;;;;;;;5114752;28;20181;-41
2021/03/18 04:49:48;;;;;;;21.40;17.20;;;;;;;;;;5114098;28;20708;-42
2021/03/18 04:52:14;;;;;;;20.83;17.30;;;;;;;;;;5115085;27;20603;-41
2021/03/18 04:54:40;;;;;;;18.17;15.83;;;;;;;;;;5115276;28;20221;-42
2021/03/18 04:57:05;;;;;;;22.60;17.87;;;;;;;;;;5114844;28;20605;-40
2021/03/18 04:59:31;;;;;;;21.23;18.70;;;;;;;;;;5114429;28;20177;-41
2021/03/18 05:01:56;;;;;;;20.17;17.50;;;;;;;;;;5113275;28;20276;-41
2021/03/18 05:04:22;;;;;;;21.57;18.37;;;;;;;;;;5114561;28;20189;-43
2021/03/18 05:06:48;;;;;;;19.83;17.30;;;;;;;;;;5113171;28;20741;-39
2021/03/18 05:09:14;;;;;;;21.00;16.30;;;;;;;;;;5109994;28;20609;-42
2021/03/18 05:11:39;;;;;;;21.53;17.50;;;;;;;;;;5114490;28;20602;-42
2021/03/18 05:14:07;;;;;;;16.90;15.10;;;;;;;;;;5114269;28;20253;-41
2021/03/18 05:16:33;;;;;;;20.93;17.33;;;;;;;;;;5110115;28;21005;-42
2021/03/18 05:18:58;;;;;;;18.27;15.90;;;;;;;;;;5114175;28;20686;-41
2021/03/18 05:21:23;;;;;;;21.17;18.30;;;;;;;;;;5111061;27;20189;-41
2021/03/18 05:23:49;;;;;;;20.53;16.30;;;;;;;;;;5110072;28;20846;-42
2021/03/18 05:26:14;;;;;;;21.73;18.20;;;;;;;;;;5110012;28;20573;-41
2021/03/18 05:28:39;;;;;;;25.60;18.10;;;;;;;;;;5109502;28;20180;-42
2021/03/18 05:31:04;;;;;;;20.30;18.07;;;;;;;;;;5110546;28;20181;-41
2021/03/18 05:33:30;;;;;;;22.77;17.67;;;;;;;;;;5110075;28;20643;-41
2021/03/18 05:35:55;;;;;;;20.40;17.23;;;;;;;;;;5110318;28;20185;-42
2021/03/18 05:38:20;;;;;;;21.77;16.80;;;;;;;;;;5103603;28;20629;-42
2021/03/18 05:40:48;;;;;;;22.27;18.20;;;;;;;;;;5105894;28;20201;-42
2021/03/18 05:43:13;;;;;;;22.00;17.30;;;;;;;;;;5108173;28;20213;-42
2021/03/18 05:45:39;;;;;;;22.30;18.27;;;;;;;;;;5108530;28;20668;-43
2021/03/18 05:48:04;;;;;;;20.73;18.57;;;;;;;;;;5106840;28;20178;-42
2021/03/18 05:50:31;;;;;;;18.93;16.90;;;;;;;;;;5106624;27;20286;-42
2021/03/18 05:52:58;;;;;;;22.97;18.40;;;;;;;;;;5107894;28;20198;-42
2021/03/18 05:55:23;;;;;;;23.03;18.60;;;;;;;;;;5107881;28;20653;-42
2021/03/18 05:57:49;;;;;;;24.97;19.10;;;;;;;;;;5106441;28;20728;-42
2021/03/18 06:00:15;;;;;;;21.67;18.13;;;;;;;;;;5104000;28;20208;-41
2021/03/18 06:02:40;;;;;;;20.00;16.77;;;;;;;;;;5106275;28;20609;-41
2021/03/18 06:05:07;;;;;;;22.33;17.80;;;;;;;;;;5104524;28;20200;-42
2021/03/18 06:07:32;;;;;;;20.63;16.17;;;;;;;;;;5106452;28;20178;-42
2021/03/18 06:09:57;;;;;;;20.47;16.87;;;;;;;;;;5106315;28;21022;-43
2021/03/18 06:12:23;;;;;;;19.63;15.13;;;;;;;;;;5107191;28;20737;-43
2021/03/18 06:14:48;;;;;;;18.20;15.20;;;;;;;;;;5106062;28;20212;-42
2021/03/18 06:17:14;;;;;;;19.03;15.70;;;;;;;;;;5105674;28;20187;-43
2021/03/18 06:19:39;;;;;;;15.80;13.03;;;;;;;;;;5106188;28;20173;-42
2021/03/18 06:22:04;;;;;;;18.60;15.63;;;;;;;;;;5108067;28;20599;-42
2021/03/18 06:24:33;;;;;;;18.97;15.10;;;;;;;;;;5110107;28;20226;-41
2021/03/18 06:26:58;;;;;;;16.57;14.60;;;;;;;;;;5114977;27;20274;-41
2021/03/18 06:29:27;;;;;;;16.07;14.43;;;;;;;;;;5130886;27;21304;-41
2021/03/18 06:31:53;;;;;;;17.47;14.30;;;;;;;;;;5130509;27;20194;-41
2021/03/18 06:34:37;;;;;;;15.80;13.40;;;;;;;;;;5117479;27;20623;-41
2021/03/18 06:37:03;;;;;;;15.13;12.40;;;;;;;;;;5090065;28;20696;-42
2021/03/18 06:39:30;;;;;;;14.40;12.90;;;;;;;;;;5095644;28;20698;-44
2021/03/18 06:41:59;;;;;;;17.30;14.50;;;;;;;;;;5110428;28;20253;-42
2021/03/18 06:44:29;;;;;;;16.70;14.40;;;;;;;;;;5109863;28;20948;-41
2021/03/18 06:46:55;;;;;;;15.30;13.03;;;;;;;;;;5109155;28;20734;-41
2021/03/18 06:49:21;;;;;;;18.17;12.60;;;;;;;;;;5109672;28;20598;-42
2021/03/18 06:52:03;;;;;;;14.93;12.70;;;;;;;;;;5110189;28;20583;-41
2021/03/18 06:54:31;;;;;;;13.93;12.30;;;;;;;;;;5109397;28;20289;-41
2021/03/18 06:56:58;;;;;;;16.73;14.07;;;;;;;;;;5110059;28;20575;-41
2021/03/18 06:59:25;;;;;;;17.03;14.37;;;;;;;;;;5110061;28;20687;-41
2021/03/18 07:02:09;;;;;;;13.83;12.27;;;;;;;;;;5110176;28;21044;-42
2021/03/18 07:04:35;;;;;;;15.53;12.00;;;;;;;;;;5109396;28;20703;-42
2021/03/18 07:07:00;;;;;;;17.13;13.90;;;;;;;;;;5108810;27;20650;-42
2021/03/18 07:09:29;;;;;;;16.87;12.83;;;;;;;;;;5108962;28;20656;-42
2021/03/18 07:11:58;;;;;;;17.60;13.83;;;;;;;;;;5109803;28;20250;-42
2021/03/18 07:14:43;;;;;;;16.17;13.40;;;;;;;;;;5107979;27;20736;-42
2021/03/18 07:17:10;;;;;;;21.10;15.60;;;;;;;;;;5108606;28;20595;-42
2021/03/18 07:19:35;;;;;;;17.63;14.30;;;;;;;;;;5108756;28;20616;-42
2021/03/18 07:22:02;;;;;;;19.50;15.37;;;;;;;;;;5109366;27;21155;-43
2021/03/18 07:24:32;;;;;;;17.63;14.87;;;;;;;;;;5119631;27;20649;-42
2021/03/18 07:26:58;;;;;;;18.07;14.33;;;;;;;;;;5112346;27;20667;-42
2021/03/18 07:29:25;;;;;;;16.27;14.37;;;;;;;;;;5113372;27;20591;-43
2021/03/18 07:31:50;;;;;;;17.73;15.27;;;;;;;;;;5120792;27;20682;-42
2021/03/18 07:34:16;;;;;;;18.60;16.07;;;;;;;;;;5119323;27;20758;-41
2021/03/18 07:36:42;;;;;;;18.00;14.30;;;;;;;;;;5101427;28;20214;-41
2021/03/18 07:39:08;;;;;;;17.90;13.87;;;;;;;;;;5108590;28;20611;-41
2021/03/18 07:41:33;;;;;;;16.53;14.53;;;;;;;;;;5108420;28;20221;-43
2021/03/18 07:43:59;;;;;;;20.20;14.40;;;;;;;;;;5106406;28;20222;-42
2021/03/18 07:46:25;;;;;;;18.80;15.07;;;;;;;;;;5107998;28;20201;-42
2021/03/18 07:48:51;;;;;;;22.20;16.67;;;;;;;;;;5108936;28;20171;-42
2021/03/18 07:51:17;;;;;;;20.63;15.77;;;;;;;;;;5108692;28;20232;-42
2021/03/18 07:53:53;;;;;;;20.10;17.70;;;;;;;;;;5108170;28;21164;-42
2021/03/18 07:56:19;;;;;;;21.43;17.23;;;;;;;;;;5106997;28;20189;-42
2021/03/18 07:58:48;;;;;;;22.70;17.83;;;;;;;;;;5105796;28;21106;-42
2021/03/18 08:01:32;;;;;;;23.10;19.20;;;;;;;;;;5096756;28;20257;-42
2021/03/18 08:03:58;;;;;;;26.77;19.63;;;;;;;;;;5104218;28;21283;-42
2021/03/18 08:06:44;;;;;;;23.27;20.70;;;;;;;;;;5105847;28;20647;-42
2021/03/18 08:09:09;;;;;;;18.63;16.63;;;;;;;;;;5106716;28;20166;-42
2021/03/18 08:11:38;;;;;;;20.70;17.30;;;;;;;;;;5108038;28;21114;-42
2021/03/18 08:14:06;;;;;;;20.53;16.30;;;;;;;;;;5106386;28;20166;-41
2021/03/18 08:16:31;;;;;;;20.03;17.10;;;;;;;;;;5107493;28;20592;-42
2021/03/18 08:18:57;;;;;;;20.13;17.07;;;;;;;;;;5106411;28;20612;-41
2021/03/18 08:21:42;;;;;;;19.23;17.20;;;;;;;;;;5108061;28;20721;-42
2021/03/18 08:24:10;;;;;;;22.30;18.87;;;;;;;;;;5108310;28;20213;-42
2021/03/18 08:26:42;;;;;;;21.43;18.20;;;;;;;;;;5107896;28;20647;-41
2021/03/18 08:29:09;;;;;;;16.97;14.60;;;;;;;;;;5107742;28;20981;-41
2021/03/18 08:31:34;;;;;;;16.57;14.43;;;;;;;;;;5108883;28;20667;-41
2021/03/18 08:34:00;;;;;;;15.80;14.10;;;;;;;;;;5107847;28;20673;-41
2021/03/18 08:36:30;;;;;;;17.23;15.07;;;;;;;;;;5106911;28;20181;-41
2021/03/18 08:38:58;;;;;;;18.93;16.50;;;;;;;;;;5108398;28;20580;-42
2021/03/18 08:41:26;;;;;;;18.00;14.97;;;;;;;;;;5108249;28;20684;-42
2021/03/18 08:44:10;;;;;;;16.17;14.43;;;;;;;;;;5125560;28;20590;-42
2021/03/18 08:46:38;;;;;;;16.07;13.57;;;;;;;;;;5117056;28;20996;-42
2021/03/18 08:49:32;;;;;;;16.20;14.00;;;;;;;;;;5108625;28;20581;-41
2021/03/18 08:52:11;;;;;;;17.30;13.60;;;;;;;;;;5094267;28;20610;-42
2021/03/18 08:54:36;;;;;;;15.63;13.10;;;;;;;;;;5106157;28;20782;-41
2021/03/18 08:57:02;;;;;;;15.20;13.70;;;;;;;;;;5106899;28;20704;-41
2021/03/18 08:59:27;;;;;;;15.10;13.50;;;;;;;;;;5103931;28;20175;-41
2021/03/18 09:02:24;;;;;;;15.63;14.10;;;;;;;;;;5093555;28;20594;-42
2021/03/18 09:04:49;;;;;;;14.27;12.77;;;;;;;;;;5084391;28;20179;-42
2021/03/18 09:07:22;;;;;;;17.03;15.33;;;;;;;;;;5111623;28;20626;-42
2021/03/18 09:09:58;;;;;;;16.03;14.33;;;;;;;;;;5111373;28;20651;-43
2021/03/18 09:12:23;;;;;;;15.60;13.90;;;;;;;;;;5111607;28;20947;-41
2021/03/18 09:14:48;;;;;;;16.20;14.50;;;;;;;;;;5111861;28;20606;-42
2021/03/18 09:17:14;;;;;;;15.27;13.65;;;;;;;;;;5111307;28;20187;-42
2021/03/18 09:19:43;;;;;;;16.90;14.57;;;;;;;;;;5111876;28;20662;-42
2021/03/18 09:22:12;;;;;;;17.47;15.67;;;;;;;;;;5112128;28;20662;-43
2021/03/18 09:24:38;;;;;;;17.27;15.37;;;;;;;;;;5111304;28;20605;-43
2021/03/18 09:27:07;;;;;;;20.20;17.80;;;;;;;;;;5111156;28;21036;-41
2021/03/18 09:29:33;;;;;;;20.87;18.57;;;;;;;;;;5111268;28;20610;-42
2021/03/18 09:32:05;;;;;;;22.60;20.27;;;;;;;;;;5110565;28;20971;-42
2021/03/18 09:34:34;;;;;;;21.37;19.27;;;;;;;;;;5114124;27;20182;-42
2021/03/18 09:36:59;;;;;;;22.07;19.77;;;;;;;;;;5111123;28;20575;-43
2021/03/18 09:39:24;;;;;;;25.70;21.98;;;;;;;;;;5110743;28;20605;-41
2021/03/18 09:41:49;;;;;;;22.47;20.07;;;;;;;;;;5111405;28;20175;-41
2021/03/18 09:44:22;;;;;;;25.70;22.93;;;;;;;;;;5111368;28;20178;-41
2021/03/18 09:46:48;;;;;;;26.17;23.33;;;;;;;;;;5110934;28;20227;-42
2021/03/18 09:49:14;;;;;;;25.67;22.10;;;;;;;;;;5092939;28;20571;-42
2021/03/18 09:51:41;;;;;;;29.27;24.53;;;;;;;;;;5110902;28;20675;-42
2021/03/18 09:54:08;;;;;;;28.37;23.83;;;;;;;;;;5110696;28;20220;-42
2021/03/18 09:56:40;;;;;;;32.73;26.70;;;;;;;;;;5128387;27;21152;-42
2021/03/18 09:59:07;;;;;;;30.73;25.53;;;;;;;;;;5116220;27;21213;-42
2021/03/18 10:01:33;;;;;;;29.10;25.90;;;;;;;;;;5111079;28;20698;-42
2021/03/18 10:03:59;;;;;;;25.63;22.90;;;;;;;;;;5111019;28;20662;-41
2021/03/18 10:06:26;;;;;;;26.43;23.70;;;;;;;;;;5110109;28;20292;-42
2021/03/18 10:08:52;;;;;;;27.57;24.53;;;;;;;;;;5110147;28;20575;-41
2021/03/18 10:11:17;;;;;;;24.40;21.80;;;;;;;;;;5110591;28;20609;-43
2021/03/18 10:13:42;;;;;;;21.20;19.00;;;;;;;;;;5110896;28;20664;-42
2021/03/18 10:16:09;;;;;;;22.00;19.73;;;;;;;;;;5109698;28;20708;-42
2021/03/18 10:18:35;;;;;;;19.90;17.93;;;;;;;;;;5110693;28;20175;-39
2021/03/18 10:21:04;;;;;;;21.87;19.67;;;;;;;;;;5110360;28;20593;-43
2021/03/18 10:23:29;;;;;;;18.40;16.60;;;;;;;;;;5110723;28;20578;-41
2021/03/18 10:25:54;;;;;;;17.33;15.53;;;;;;;;;;5110248;28;21003;-42
2021/03/18 10:28:20;;;;;;;17.33;15.73;;;;;;;;;;5109620;28;20241;-42
2021/03/18 10:30:46;;;;;;;14.37;13.07;;;;;;;;;;5110338;28;20726;-42
2021/03/18 10:33:12;;;;;;;13.53;12.23;;;;;;;;;;5109789;28;20265;-43
2021/03/18 10:35:39;;;;;;;13.80;12.50;;;;;;;;;;5109462;27;20612;-43
2021/03/18 10:38:04;;;;;;;14.77;13.47;;;;;;;;;;5110072;28;20200;-42
2021/03/18 10:40:36;;;;;;;15.17;13.67;;;;;;;;;;5110001;28;20659;-43
2021/03/18 10:43:01;;;;;;;17.27;15.50;;;;;;;;;;5110245;28;20205;-42
2021/03/18 10:45:31;;;;;;;16.20;14.80;;;;;;;;;;5109995;28;20669;-43
2021/03/18 10:48:05;;;;;;;15.67;14.17;;;;;;;;;;5109437;28;20170;-42
2021/03/18 10:50:34;;;;;;;16.83;15.33;;;;;;;;;;5109848;28;20611;-43
2021/03/18 10:53:01;;;;;;;16.03;14.63;;;;;;;;;;5109808;28;20587;-42
2021/03/18 10:55:28;;;;;;;16.00;14.30;;;;;;;;;;5109717;28;20818;-43
2021/03/18 10:57:54;;;;;;;13.03;11.83;;;;;;;;;;5110051;28;21344;-42
2021/03/18 11:00:20;;;;;;;10.23;9.33;;;;;;;;;;5109272;28;20629;-42
2021/03/18 11:02:55;;;;;;;9.90;9.00;;;;;;;;;;5109894;28;20666;-42
2021/03/18 11:05:27;;;;;;;9.97;9.07;;;;;;;;;;5108799;28;20180;-42
2021/03/18 11:07:57;;;;;;;12.50;11.30;;;;;;;;;;5109461;28;20594;-42
2021/03/18 11:10:27;;;;;;;10.83;9.83;;;;;;;;;;5109342;28;20604;-43
2021/03/18 11:13:00;;;;;;;10.40;9.50;;;;;;;;;;5109815;28;20594;-42
2021/03/18 11:15:26;;;;;;;8.33;7.63;;;;;;;;;;5109126;28;20602;-42
2021/03/18 11:18:07;;;;;;;8.30;7.60;;;;;;;;;;5109148;28;20610;-40
2021/03/18 11:20:36;;;;;;;7.90;7.20;;;;;;;;;;5088060;28;20184;-41
2021/03/18 11:23:02;;;;;;;8.27;7.57;;;;;;;;;;5088743;28;20568;-42
2021/03/18 11:25:27;;;;;;;7.70;7.00;;;;;;;;;;5101835;28;20649;-41
2021/03/18 11:27:52;;;;;;;7.23;6.53;;;;;;;;;;5108421;28;20186;-42
2021/03/18 11:30:47;;;;;;;6.80;6.30;;;;;;;;;;5108635;28;20178;-42
2021/03/18 11:33:12;;;;;;;7.33;6.73;;;;;;;;;;5086377;28;20700;-42
2021/03/18 11:35:38;;;;;;;6.00;5.50;;;;;;;;;;5108912;28;20737;-42
2021/03/18 11:38:03;;;;;;;6.00;5.50;;;;;;;;;;5108261;28;20628;-43
2021/03/18 11:40:29;;;;;;;5.30;4.80;;;;;;;;;;5108239;27;20655;-42
2021/03/18 11:42:54;;;;;;;4.80;4.40;;;;;;;;;;5109625;28;20178;-41
2021/03/18 11:45:19;;;;;;;6.00;5.50;;;;;;;;;;5108594;28;20187;-42
2021/03/18 11:47:44;;;;;;;7.40;6.70;;;;;;;;;;5108858;28;20320;-42
2021/03/18 11:50:10;;;;;;;7.70;7.00;;;;;;;;;;5108368;28;20174;-42
2021/03/18 11:52:35;;;;;;;7.93;6.90;;;;;;;;;;5108598;28;20263;-41
2021/03/18 11:55:01;;;;;;;8.53;7.70;;;;;;;;;;5108152;28;20737;-42
2021/03/18 11:57:26;;;;;;;7.27;6.67;;;;;;;;;;5108649;28;20193;-43
2021/03/18 11:59:51;;;;;;;10.00;9.00;;;;;;;;;;5108227;28;20179;-43
2021/03/18 12:02:16;;;;;;;10.37;9.27;;;;;;;;;;5108907;28;20176;-41
2021/03/18 12:04:42;;;;;;;8.90;8.00;;;;;;;;;;5108191;28;20539;-42
2021/03/18 12:07:07;;;;;;;9.90;8.90;;;;;;;;;;5111683;27;20204;-42
2021/03/18 12:09:32;;;;;;;9.68;8.65;;;;;;;;;;5122874;28;20176;-42
2021/03/18 12:11:57;;;;;;;9.33;8.43;;;;;;;;;;5108409;28;20182;-41
2021/03/18 12:14:22;;;;;;;8.90;8.10;;;;;;;;;;5108874;28;20687;-42
2021/03/18 12:16:47;;;;;;;9.88;8.88;;;;;;;;;;5108675;28;20693;-43
2021/03/18 12:19:13;;;;;;;8.90;8.10;;;;;;;;;;5108879;28;20174;-42
2021/03/18 12:21:38;;;;;;;5.63;5.13;;;;;;;;;;5107974;28;20234;-42
2021/03/18 12:24:03;;;;;;;6.30;5.70;;;;;;;;;;5108294;28;20173;-43
2021/03/18 12:26:28;;;;;;;7.40;6.80;;;;;;;;;;5108270;28;20201;-43
2021/03/18 12:28:53;;;;;;;5.70;5.20;;;;;;;;;;5108365;28;20513;-42
2021/03/18 12:31:19;;;;;;;6.17;5.63;;;;;;;;;;5110682;28;20166;-42
2021/03/18 12:33:44;;;;;;;7.20;6.50;;;;;;;;;;5112840;28;20169;-41
2021/03/18 12:36:09;;;;;;;5.97;5.40;;;;;;;;;;5113148;28;20299;-43
2021/03/18 12:38:34;;;;;;;6.90;6.20;;;;;;;;;;5112127;28;20179;-41
2021/03/18 12:40:59;;;;;;;5.87;5.37;;;;;;;;;;5111856;28;20193;-42
2021/03/18 12:43:25;;;;;;;6.30;5.60;;;;;;;;;;5112754;28;20172;-49
2021/03/18 12:45:50;;;;;;;6.33;5.57;;;;;;;;;;5112423;28;20212;-40
2021/03/18 12:48:16;;;;;;;5.23;4.73;;;;;;;;;;5111985;28;20403;-42
2021/03/18 12:50:41;;;;;;;5.40;5.00;;;;;;;;;;5112022;28;20195;-41
2021/03/18 12:53:07;;;;;;;6.07;5.30;;;;;;;;;;5112177;28;20257;-42
2021/03/18 12:55:32;;;;;;;5.70;5.20;;;;;;;;;;5111919;28;20224;-42
2021/03/18 12:57:57;;;;;;;5.67;5.07;;;;;;;;;;5112016;28;20678;-44
2021/03/18 13:00:25;;;;;;;6.47;5.87;;;;;;;;;;5111530;27;20194;-42
2021/03/18 13:02:50;;;;;;;5.20;4.80;;;;;;;;;;5112261;28;20166;-42
2021/03/18 13:05:16;;;;;;;11.77;6.37;;;;;;;;;;5111482;28;20588;-43
2021/03/18 13:07:41;;;;;;;6.37;5.77;;;;;;;;;;5112011;28;20177;-43
2021/03/18 13:10:07;;;;;;;6.90;6.10;;;;;;;;;;5111831;28;20216;-42
2021/03/18 13:12:32;;;;;;;7.17;6.47;;;;;;;;;;5111640;28;20177;-42
2021/03/18 13:14:58;;;;;;;6.03;5.53;;;;;;;;;;5112283;28;20589;-42
2021/03/18 13:17:23;;;;;;;6.90;6.20;;;;;;;;;;5111397;28;20752;-41
2021/03/18 13:19:48;;;;;;;7.87;7.10;;;;;;;;;;5111896;28;20185;-42
2021/03/18 13:22:13;;;;;;;8.10;7.45;;;;;;;;;;5111592;28;20168;-41
2021/03/18 13:24:38;;;;;;;5.88;5.32;;;;;;;;;;5111357;28;20177;-42
2021/03/18 13:27:04;;;;;;;5.82;5.32;;;;;;;;;;5111688;28;20554;-43
2021/03/18 13:29:31;;;;;;;6.10;5.20;;;;;;;;;;5111707;28;20173;-42
2021/03/18 13:31:56;;;;;;;6.67;5.93;;;;;;;;;;5111284;28;20177;-42
2021/03/18 13:34:21;;;;;;;6.03;5.53;;;;;;;;;;5111583;28;20682;-42
2021/03/18 13:36:46;;;;;;;6.35;5.80;;;;;;;;;;5111430;28;20180;-43
2021/03/18 13:39:12;;;;;;;10.27;7.87;;;;;;;;;;5111131;28;20554;-42
2021/03/18 13:41:37;;;;;;;9.00;6.67;;;;;;;;;;5110604;28;20270;-41
2021/03/18 13:44:03;;;;;;;7.80;7.00;;;;;;;;;;5111074;28;20220;-42
2021/03/18 13:46:29;;;;;;;7.90;6.83;;;;;;;;;;5111019;28;20211;-42
2021/03/18 13:48:54;;;;;;;7.20;6.50;;;;;;;;;;5110890;28;20690;-42
2021/03/18 13:51:20;;;;;;;8.17;7.37;;;;;;;;;;5109625;28;20639;-42
2021/03/18 13:53:45;;;;;;;7.00;6.40;;;;;;;;;;5098368;28;20629;-42
2021/03/18 13:56:10;;;;;;;6.97;5.93;;;;;;;;;;5110965;28;20183;-42
2021/03/18 13:58:35;;;;;;;6.70;6.10;;;;;;;;;;5110772;28;20174;-42
2021/03/18 14:01:01;;;;;;;7.40;6.73;;;;;;;;;;5110752;28;20175;-42
2021/03/18 14:03:27;;;;;;;5.63;5.13;;;;;;;;;;5110680;28;20183;-50
2021/03/18 14:05:52;;;;;;;5.50;5.00;;;;;;;;;;5110722;28;20205;-43
2021/03/18 14:08:17;;;;;;;5.33;4.83;;;;;;;;;;5110576;28;20209;-43
2021/03/18 14:10:42;;;;;;;6.03;5.50;;;;;;;;;;5109784;28;20243;-43
2021/03/18 14:13:10;;;;;;;6.57;5.47;;;;;;;;;;5110841;28;20205;-42
2021/03/18 14:15:35;;;;;;;6.13;5.60;;;;;;;;;;5110728;28;20179;-42
2021/03/18 14:18:01;;;;;;;5.60;5.10;;;;;;;;;;5110230;28;20735;-42
2021/03/18 14:20:28;;;;;;;6.90;6.30;;;;;;;;;;5110374;28;20227;-41
2021/03/18 14:22:53;;;;;;;7.03;6.43;;;;;;;;;;5110150;28;20188;-42